sensor_id;sensor_type;location;lat;lon;timestamp;P1;P2;P0
44045;PMS7003;29709;52.396;16.796;2023-07-13T00:01:41;0;0;0
44045;PMS7003;29709;52.396;16.796;2023-07-13T00:04:55;0;0;0
44045;PMS7003;29709;52.396;16.796;2023-07-13T00:08:08;1;0;0
44045;PMS7003;29709;52.396;16.796;2023-07-13T00:11:24;1;0;0
44045;PMS7003;29709;52.396;16.796;2023-07-13T00:14:37;0;0;0
44045;PMS7003;29709;52.396;16.796;2023-07-13T00:17:50;0;0;0
44045;PMS7003;29709;52.396;16.796;2023-07-13T00:21:05;0;0;0
44045;PMS7003;29709;52.396;16.796;2023-07-13T00:24:18;0;0;0
44045;PMS7003;29709;52.396;16.796;2023-07-13T00:27:36;0;0;0
44045;PMS7003;29709;52.396;16.796;2023-07-13T00:30:50;0;0;0
44045;PMS7003;29709;52.396;16.796;2023-07-13T00:34:03;0;0;0
44045;PMS7003;29709;52.396;16.796;2023-07-13T00:37:16;0;0;0
44045;PMS7003;29709;52.396;16.796;2023-07-13T00:40:30;0;0;0
44045;PMS7003;29709;52.396;16.796;2023-07-13T00:43:43;0;0;0
44045;PMS7003;29709;52.396;16.796;2023-07-13T00:46:56;0;0;0
44045;PMS7003;29709;52.396;16.796;2023-07-13T00:50:12;0;0;0
44045;PMS7003;29709;52.396;16.796;2023-07-13T00:53:28;0;0;0
44045;PMS7003;29709;52.396;16.796;2023-07-13T00:56:43;0;0;0
44045;PMS7003;29709;52.396;16.796;2023-07-13T00:59:59;0;0;0
44045;PMS7003;29709;52.396;16.796;2023-07-13T01:03:23;0;0;0
44045;PMS7003;29709;52.396;16.796;2023-07-13T01:06:37;0;0;0
44045;PMS7003;29709;52.396;16.796;2023-07-13T01:09:52;1;0;0
44045;PMS7003;29709;52.396;16.796;2023-07-13T01:13:06;0;0;0
44045;PMS7003;29709;52.396;16.796;2023-07-13T01:19:43;1;0;0
44045;PMS7003;29709;52.396;16.796;2023-07-13T01:22:57;0;0;0
44045;PMS7003;29709;52.396;16.796;2023-07-13T01:26:12;0;0;0
44045;PMS7003;29709;52.396;16.796;2023-07-13T01:29:25;0;0;0
44045;PMS7003;29709;52.396;16.796;2023-07-13T01:32:38;0;0;0
44045;PMS7003;29709;52.396;16.796;2023-07-13T01:35:54;0;0;0
44045;PMS7003;29709;52.396;16.796;2023-07-13T01:39:10;0;0;0
44045;PMS7003;29709;52.396;16.796;2023-07-13T01:42:23;0;0;0
44045;PMS7003;29709;52.396;16.796;2023-07-13T01:45:36;0;0;0
44045;PMS7003;29709;52.396;16.796;2023-07-13T01:48:50;1;1;0
44045;PMS7003;29709;52.396;16.796;2023-07-13T01:52:04;0;0;0
44045;PMS7003;29709;52.396;16.796;2023-07-13T01:55:17;0;0;0
44045;PMS7003;29709;52.396;16.796;2023-07-13T01:58:33;0;0;0
44045;PMS7003;29709;52.396;16.796;2023-07-13T02:01:46;3;0;0
44045;PMS7003;29709;52.396;16.796;2023-07-13T02:04:59;0;0;0
44045;PMS7003;29709;52.396;16.796;2023-07-13T02:08:15;0;0;0
44045;PMS7003;29709;52.396;16.796;2023-07-13T02:11:28;1;1;1
44045;PMS7003;29709;52.396;16.796;2023-07-13T02:14:45;2;1;0
44045;PMS7003;29709;52.396;16.796;2023-07-13T02:17:58;0;0;0
44045;PMS7003;29709;52.396;16.796;2023-07-13T02:21:12;1;0;0
44045;PMS7003;29709;52.396;16.796;2023-07-13T02:24:25;0;0;0
44045;PMS7003;29709;52.396;16.796;2023-07-13T02:27:38;1;0;0
44045;PMS7003;29709;52.396;16.796;2023-07-13T02:30:51;1;0;0
44045;PMS7003;29709;52.396;16.796;2023-07-13T02:34:04;0;0;0
44045;PMS7003;29709;52.396;16.796;2023-07-13T02:37:18;0;0;0
44045;PMS7003;29709;52.396;16.796;2023-07-13T02:40:31;0;0;0
44045;PMS7003;29709;52.396;16.796;2023-07-13T02:43:46;0;0;0
44045;PMS7003;29709;52.396;16.796;2023-07-13T02:46:59;0;0;0
44045;PMS7003;29709;52.396;16.796;2023-07-13T02:50:12;1;1;0
44045;PMS7003;29709;52.396;16.796;2023-07-13T02:53:25;2;2;1
44045;PMS7003;29709;52.396;16.796;2023-07-13T02:56:39;2;1;1
44045;PMS7003;29709;52.396;16.796;2023-07-13T02:59:53;1;1;1
44045;PMS7003;29709;52.396;16.796;2023-07-13T03:03:07;1;1;1
44045;PMS7003;29709;52.396;16.796;2023-07-13T03:06:20;1;0;0
44045;PMS7003;29709;52.396;16.796;2023-07-13T03:09:35;1;1;1
44045;PMS7003;29709;52.396;16.796;2023-07-13T03:12:49;3;1;0
44045;PMS7003;29709;52.396;16.796;2023-07-13T03:16:02;1;0;0
44045;PMS7003;29709;52.396;16.796;2023-07-13T03:19:15;1;1;1
44045;PMS7003;29709;52.396;16.796;2023-07-13T03:22:29;1;1;1
44045;PMS7003;29709;52.396;16.796;2023-07-13T03:25:42;1;1;0
44045;PMS7003;29709;52.396;16.796;2023-07-13T03:28:57;3;1;1
44045;PMS7003;29709;52.396;16.796;2023-07-13T03:32:10;1;1;1
44045;PMS7003;29709;52.396;16.796;2023-07-13T03:35:23;1;0;0
44045;PMS7003;29709;52.396;16.796;2023-07-13T03:38:37;2;1;1
44045;PMS7003;29709;52.396;16.796;2023-07-13T03:41:50;3;2;1
44045;PMS7003;29709;52.396;16.796;2023-07-13T03:45:03;1;1;1
44045;PMS7003;29709;52.396;16.796;2023-07-13T03:48:17;2;2;1
44045;PMS7003;29709;52.396;16.796;2023-07-13T03:51:30;1;1;1
44045;PMS7003;29709;52.396;16.796;2023-07-13T03:54:44;2;2;1
44045;PMS7003;29709;52.396;16.796;2023-07-13T03:57:58;4;3;2
44045;PMS7003;29709;52.396;16.796;2023-07-13T04:01:14;1;0;0
44045;PMS7003;29709;52.396;16.796;2023-07-13T04:04:29;2;2;1
44045;PMS7003;29709;52.396;16.796;2023-07-13T04:07:43;3;3;2
44045;PMS7003;29709;52.396;16.796;2023-07-13T04:10:57;3;2;1
44045;PMS7003;29709;52.396;16.796;2023-07-13T04:14:11;3;2;2
44045;PMS7003;29709;52.396;16.796;2023-07-13T04:17:24;3;1;1
44045;PMS7003;29709;52.396;16.796;2023-07-13T04:20:37;3;2;2
44045;PMS7003;29709;52.396;16.796;2023-07-13T04:23:50;2;2;2
44045;PMS7003;29709;52.396;16.796;2023-07-13T04:27:04;2;2;2
44045;PMS7003;29709;52.396;16.796;2023-07-13T04:30:17;3;3;2
44045;PMS7003;29709;52.396;16.796;2023-07-13T04:33:31;4;3;3
44045;PMS7003;29709;52.396;16.796;2023-07-13T04:36:44;3;3;3
44045;PMS7003;29709;52.396;16.796;2023-07-13T04:39:57;5;4;3
44045;PMS7003;29709;52.396;16.796;2023-07-13T04:43:10;4;3;2
44045;PMS7003;29709;52.396;16.796;2023-07-13T04:46:24;3;3;2
44045;PMS7003;29709;52.396;16.796;2023-07-13T04:49:37;3;3;2
44045;PMS7003;29709;52.396;16.796;2023-07-13T04:52:50;3;3;3
44045;PMS7003;29709;52.396;16.796;2023-07-13T04:56:04;2;2;1
44045;PMS7003;29709;52.396;16.796;2023-07-13T04:59:17;7;4;4
44045;PMS7003;29709;52.396;16.796;2023-07-13T05:02:30;2;2;1
44045;PMS7003;29709;52.396;16.796;2023-07-13T05:05:54;4;4;3
44045;PMS7003;29709;52.396;16.796;2023-07-13T05:09:07;5;3;2
44045;PMS7003;29709;52.396;16.796;2023-07-13T05:12:20;4;3;3
44045;PMS7003;29709;52.396;16.796;2023-07-13T05:15:33;3;2;2
44045;PMS7003;29709;52.396;16.796;2023-07-13T05:18:47;3;3;2
44045;PMS7003;29709;52.396;16.796;2023-07-13T05:22:00;3;3;3
44045;PMS7003;29709;52.396;16.796;2023-07-13T05:25:13;3;3;2
44045;PMS7003;29709;52.396;16.796;2023-07-13T05:28:27;3;3;3
44045;PMS7003;29709;52.396;16.796;2023-07-13T05:31:41;4;4;3
44045;PMS7003;29709;52.396;16.796;2023-07-13T05:34:54;3;3;2
44045;PMS7003;29709;52.396;16.796;2023-07-13T05:38:07;4;3;3
44045;PMS7003;29709;52.396;16.796;2023-07-13T05:41:21;4;4;3
44045;PMS7003;29709;52.396;16.796;2023-07-13T05:44:34;3;3;3
44045;PMS7003;29709;52.396;16.796;2023-07-13T05:47:47;5;4;3
44045;PMS7003;29709;52.396;16.796;2023-07-13T05:51:01;2;1;1
44045;PMS7003;29709;52.396;16.796;2023-07-13T05:54:15;5;5;4
44045;PMS7003;29709;52.396;16.796;2023-07-13T05:57:28;3;3;2
44045;PMS7003;29709;52.396;16.796;2023-07-13T06:00:41;5;4;4
44045;PMS7003;29709;52.396;16.796;2023-07-13T06:03:54;5;4;3
44045;PMS7003;29709;52.396;16.796;2023-07-13T06:07:07;3;3;3
44045;PMS7003;29709;52.396;16.796;2023-07-13T06:10:20;4;4;3
44045;PMS7003;29709;52.396;16.796;2023-07-13T06:13:33;4;4;3
44045;PMS7003;29709;52.396;16.796;2023-07-13T06:16:47;5;3;3
44045;PMS7003;29709;52.396;16.796;2023-07-13T06:20:00;5;4;3
44045;PMS7003;29709;52.396;16.796;2023-07-13T06:23:13;4;4;3
44045;PMS7003;29709;52.396;16.796;2023-07-13T06:26:26;4;3;3
44045;PMS7003;29709;52.396;16.796;2023-07-13T06:29:40;4;3;3
44045;PMS7003;29709;52.396;16.796;2023-07-13T06:32:53;4;4;4
44045;PMS7003;29709;52.396;16.796;2023-07-13T06:36:07;4;4;3
44045;PMS7003;29709;52.396;16.796;2023-07-13T06:39:22;5;5;4
44045;PMS7003;29709;52.396;16.796;2023-07-13T06:42:35;6;5;4
44045;PMS7003;29709;52.396;16.796;2023-07-13T06:45:48;5;5;3
44045;PMS7003;29709;52.396;16.796;2023-07-13T06:49:03;6;3;2
44045;PMS7003;29709;52.396;16.796;2023-07-13T06:52:16;6;6;5
44045;PMS7003;29709;52.396;16.796;2023-07-13T06:55:29;5;4;3
44045;PMS7003;29709;52.396;16.796;2023-07-13T06:58:42;5;5;5
44045;PMS7003;29709;52.396;16.796;2023-07-13T07:01:56;6;4;3
44045;PMS7003;29709;52.396;16.796;2023-07-13T07:05:09;6;6;5
44045;PMS7003;29709;52.396;16.796;2023-07-13T07:08:22;5;5;4
44045;PMS7003;29709;52.396;16.796;2023-07-13T07:11:35;7;6;5
44045;PMS7003;29709;52.396;16.796;2023-07-13T07:14:48;8;5;4
44045;PMS7003;29709;52.396;16.796;2023-07-13T07:18:01;10;8;6
44045;PMS7003;29709;52.396;16.796;2023-07-13T07:21:15;8;8;6
44045;PMS7003;29709;52.396;16.796;2023-07-13T07:24:28;5;4;3
44045;PMS7003;29709;52.396;16.796;2023-07-13T07:27:41;6;5;4
44045;PMS7003;29709;52.396;16.796;2023-07-13T07:30:55;2;2;2
44045;PMS7003;29709;52.396;16.796;2023-07-13T07:34:09;2;1;1
44045;PMS7003;29709;52.396;16.796;2023-07-13T07:37:23;3;3;2
44045;PMS7003;29709;52.396;16.796;2023-07-13T07:40:36;2;2;2
44045;PMS7003;29709;52.396;16.796;2023-07-13T07:43:50;4;3;2
44045;PMS7003;29709;52.396;16.796;2023-07-13T07:47:04;2;2;1
44045;PMS7003;29709;52.396;16.796;2023-07-13T07:50:17;2;2;2
44045;PMS7003;29709;52.396;16.796;2023-07-13T07:53:32;2;2;2
44045;PMS7003;29709;52.396;16.796;2023-07-13T07:56:45;2;2;2
44045;PMS7003;29709;52.396;16.796;2023-07-13T07:59:58;2;1;1
44045;PMS7003;29709;52.396;16.796;2023-07-13T08:03:11;4;1;1
44045;PMS7003;29709;52.396;16.796;2023-07-13T08:06:25;3;2;1
44045;PMS7003;29709;52.396;16.796;2023-07-13T08:09:38;2;2;1
44045;PMS7003;29709;52.396;16.796;2023-07-13T08:12:51;3;2;1
44045;PMS7003;29709;52.396;16.796;2023-07-13T08:16:04;2;1;1
44045;PMS7003;29709;52.396;16.796;2023-07-13T08:19:18;1;0;0
44045;PMS7003;29709;52.396;16.796;2023-07-13T08:22:32;2;2;1
44045;PMS7003;29709;52.396;16.796;2023-07-13T08:25:50;3;2;2
44045;PMS7003;29709;52.396;16.796;2023-07-13T08:29:06;3;2;1
44045;PMS7003;29709;52.396;16.796;2023-07-13T08:32:54;8;5;4
44045;PMS7003;29709;52.396;16.796;2023-07-13T08:36:07;4;3;2
44045;PMS7003;29709;52.396;16.796;2023-07-13T08:39:20;1;0;0
44045;PMS7003;29709;52.396;16.796;2023-07-13T08:42:36;2;2;1
44045;PMS7003;29709;52.396;16.796;2023-07-13T08:45:53;3;3;2
44045;PMS7003;29709;52.396;16.796;2023-07-13T08:49:16;3;3;2
44045;PMS7003;29709;52.396;16.796;2023-07-13T08:52:36;2;1;1
44045;PMS7003;29709;52.396;16.796;2023-07-13T08:55:56;3;3;2
44045;PMS7003;29709;52.396;16.796;2023-07-13T08:59:13;2;2;2
44045;PMS7003;29709;52.396;16.796;2023-07-13T09:05:58;4;4;3
44045;PMS7003;29709;52.396;16.796;2023-07-13T09:16:07;4;3;3
44045;PMS7003;29709;52.396;16.796;2023-07-13T09:19:26;4;3;3
44045;PMS7003;29709;52.396;16.796;2023-07-13T09:22:42;5;4;3
44045;PMS7003;29709;52.396;16.796;2023-07-13T09:25:59;2;2;2
44045;PMS7003;29709;52.396;16.796;2023-07-13T09:29:31;6;3;3
44045;PMS7003;29709;52.396;16.796;2023-07-13T09:32:43;6;4;3
44045;PMS7003;29709;52.396;16.796;2023-07-13T09:36:05;3;2;2
44045;PMS7003;29709;52.396;16.796;2023-07-13T09:39:27;5;3;3
44045;PMS7003;29709;52.396;16.796;2023-07-13T09:42:46;4;3;3
44045;PMS7003;29709;52.396;16.796;2023-07-13T09:46:00;3;2;1
44045;PMS7003;29709;52.396;16.796;2023-07-13T09:49:13;4;4;3
44045;PMS7003;29709;52.396;16.796;2023-07-13T09:52:27;6;5;4
44045;PMS7003;29709;52.396;16.796;2023-07-13T09:55:46;5;5;4
44045;PMS7003;29709;52.396;16.796;2023-07-13T09:59:00;3;3;2
44045;PMS7003;29709;52.396;16.796;2023-07-13T10:02:32;4;3;3
44045;PMS7003;29709;52.396;16.796;2023-07-13T10:05:43;4;3;3
44045;PMS7003;29709;52.396;16.796;2023-07-13T10:08:58;4;3;2
44045;PMS7003;29709;52.396;16.796;2023-07-13T10:12:14;5;3;3
44045;PMS7003;29709;52.396;16.796;2023-07-13T10:15:28;3;3;2
44045;PMS7003;29709;52.396;16.796;2023-07-13T10:25:32;3;3;3
44045;PMS7003;29709;52.396;16.796;2023-07-13T10:28:51;5;3;3
44045;PMS7003;29709;52.396;16.796;2023-07-13T10:32:09;6;4;3
44045;PMS7003;29709;52.396;16.796;2023-07-13T10:35:27;5;5;4
44045;PMS7003;29709;52.396;16.796;2023-07-13T10:38:43;5;4;4
44045;PMS7003;29709;52.396;16.796;2023-07-13T10:42:00;5;4;3
44045;PMS7003;29709;52.396;16.796;2023-07-13T10:45:20;3;1;1
44045;PMS7003;29709;52.396;16.796;2023-07-13T10:48:36;6;5;4
44045;PMS7003;29709;52.396;16.796;2023-07-13T10:51:52;5;3;3
44045;PMS7003;29709;52.396;16.796;2023-07-13T10:55:10;3;3;2
44045;PMS7003;29709;52.396;16.796;2023-07-13T10:58:33;4;4;3
44045;PMS7003;29709;52.396;16.796;2023-07-13T11:01:55;4;4;3
44045;PMS7003;29709;52.396;16.796;2023-07-13T11:12:09;4;4;3
44045;PMS7003;29709;52.396;16.796;2023-07-13T11:15:33;3;3;3
44045;PMS7003;29709;52.396;16.796;2023-07-13T11:22:23;3;3;2
44045;PMS7003;29709;52.396;16.796;2023-07-13T11:25:38;3;0;0
44045;PMS7003;29709;52.396;16.796;2023-07-13T11:28:51;3;3;3
44045;PMS7003;29709;52.396;16.796;2023-07-13T11:35:30;2;2;1
44045;PMS7003;29709;52.396;16.796;2023-07-13T11:38:50;1;1;0
44045;PMS7003;29709;52.396;16.796;2023-07-13T11:42:10;1;1;1
44045;PMS7003;29709;52.396;16.796;2023-07-13T11:45:27;1;1;1
44045;PMS7003;29709;52.396;16.796;2023-07-13T11:48:47;1;1;1
44045;PMS7003;29709;52.396;16.796;2023-07-13T11:52:00;2;1;1
44045;PMS7003;29709;52.396;16.796;2023-07-13T11:55:18;1;0;0
44045;PMS7003;29709;52.396;16.796;2023-07-13T11:58:34;1;1;1
44045;PMS7003;29709;52.396;16.796;2023-07-13T12:01:49;1;1;1
44045;PMS7003;29709;52.396;16.796;2023-07-13T12:05:05;2;1;1
44045;PMS7003;29709;52.396;16.796;2023-07-13T12:08:24;2;2;1
44045;PMS7003;29709;52.396;16.796;2023-07-13T12:11:40;2;2;1
44045;PMS7003;29709;52.396;16.796;2023-07-13T12:14:55;3;2;2
44045;PMS7003;29709;52.396;16.796;2023-07-13T12:18:12;2;1;1
44045;PMS7003;29709;52.396;16.796;2023-07-13T12:21:30;1;1;1
44045;PMS7003;29709;52.396;16.796;2023-07-13T12:24:46;1;1;1
44045;PMS7003;29709;52.396;16.796;2023-07-13T12:28:01;0;0;0
44045;PMS7003;29709;52.396;16.796;2023-07-13T12:34:52;1;1;1
44045;PMS7003;29709;52.396;16.796;2023-07-13T12:38:08;1;0;0
44045;PMS7003;29709;52.396;16.796;2023-07-13T12:41:23;1;1;1
44045;PMS7003;29709;52.396;16.796;2023-07-13T12:44:39;3;2;2
44045;PMS7003;29709;52.396;16.796;2023-07-13T12:47:55;0;0;0
44045;PMS7003;29709;52.396;16.796;2023-07-13T12:51:13;1;1;1
44045;PMS7003;29709;52.396;16.796;2023-07-13T12:54:27;1;1;1
44045;PMS7003;29709;52.396;16.796;2023-07-13T12:57:49;0;0;0
44045;PMS7003;29709;52.396;16.796;2023-07-13T13:01:05;2;1;0
44045;PMS7003;29709;52.396;16.796;2023-07-13T13:04:18;1;0;0
44045;PMS7003;29709;52.396;16.796;2023-07-13T13:07:35;1;0;0
44045;PMS7003;29709;52.396;16.796;2023-07-13T13:10:51;1;1;1
44045;PMS7003;29709;52.396;16.796;2023-07-13T13:14:04;0;0;0
44045;PMS7003;29709;52.396;16.796;2023-07-13T13:17:19;1;1;0
44045;PMS7003;29709;52.396;16.796;2023-07-13T13:20:34;0;0;0
44045;PMS7003;29709;52.396;16.796;2023-07-13T13:23:47;1;0;0
44045;PMS7003;29709;52.396;16.796;2023-07-13T13:27:03;2;2;1
44045;PMS7003;29709;52.396;16.796;2023-07-13T13:30:18;0;0;0
44045;PMS7003;29709;52.396;16.796;2023-07-13T13:33:35;0;0;0
44045;PMS7003;29709;52.396;16.796;2023-07-13T13:36:50;0;0;0
44045;PMS7003;29709;52.396;16.796;2023-07-13T13:40:14;2;1;0
44045;PMS7003;29709;52.396;16.796;2023-07-13T13:43:28;0;0;0
44045;PMS7003;29709;52.396;16.796;2023-07-13T13:46:41;1;0;0
44045;PMS7003;29709;52.396;16.796;2023-07-13T13:49:58;1;1;0
44045;PMS7003;29709;52.396;16.796;2023-07-13T13:53:13;1;1;1
44045;PMS7003;29709;52.396;16.796;2023-07-13T13:56:26;2;0;0
44045;PMS7003;29709;52.396;16.796;2023-07-13T13:59:40;0;0;0
44045;PMS7003;29709;52.396;16.796;2023-07-13T14:02:53;1;0;0
44045;PMS7003;29709;52.396;16.796;2023-07-13T14:06:13;1;0;0
44045;PMS7003;29709;52.396;16.796;2023-07-13T14:09:28;3;0;0
44045;PMS7003;29709;52.396;16.796;2023-07-13T14:12:42;0;0;0
44045;PMS7003;29709;52.396;16.796;2023-07-13T14:15:59;0;0;0
44045;PMS7003;29709;52.396;16.796;2023-07-13T14:19:13;1;1;0
44045;PMS7003;29709;52.396;16.796;2023-07-13T14:22:27;0;0;0
44045;PMS7003;29709;52.396;16.796;2023-07-13T14:25:41;0;0;0
44045;PMS7003;29709;52.396;16.796;2023-07-13T14:28:56;3;0;0
44045;PMS7003;29709;52.396;16.796;2023-07-13T14:32:11;0;0;0
44045;PMS7003;29709;52.396;16.796;2023-07-13T14:35:25;0;0;0
44045;PMS7003;29709;52.396;16.796;2023-07-13T14:38:38;0;0;0
44045;PMS7003;29709;52.396;16.796;2023-07-13T14:41:55;0;0;0
44045;PMS7003;29709;52.396;16.796;2023-07-13T14:45:13;2;0;0
44045;PMS7003;29709;52.396;16.796;2023-07-13T14:48:28;0;0;0
44045;PMS7003;29709;52.396;16.796;2023-07-13T14:51:41;0;0;0
44045;PMS7003;29709;52.396;16.796;2023-07-13T14:54:54;0;0;0
44045;PMS7003;29709;52.396;16.796;2023-07-13T14:58:09;1;1;1
44045;PMS7003;29709;52.396;16.796;2023-07-13T15:01:23;0;0;0
44045;PMS7003;29709;52.396;16.796;2023-07-13T15:04:36;0;0;0
44045;PMS7003;29709;52.396;16.796;2023-07-13T15:07:50;0;0;0
44045;PMS7003;29709;52.396;16.796;2023-07-13T15:11:06;2;1;0
44045;PMS7003;29709;52.396;16.796;2023-07-13T15:14:25;0;0;0
44045;PMS7003;29709;52.396;16.796;2023-07-13T15:17:43;1;0;0
44045;PMS7003;29709;52.396;16.796;2023-07-13T15:20:59;0;0;0
44045;PMS7003;29709;52.396;16.796;2023-07-13T15:24:16;1;0;0
44045;PMS7003;29709;52.396;16.796;2023-07-13T15:27:29;0;0;0
44045;PMS7003;29709;52.396;16.796;2023-07-13T15:30:45;1;1;1
44045;PMS7003;29709;52.396;16.796;2023-07-13T15:34:00;0;0;0
44045;PMS7003;29709;52.396;16.796;2023-07-13T15:37:14;2;1;0
44045;PMS7003;29709;52.396;16.796;2023-07-13T15:40:28;1;0;0
44045;PMS7003;29709;52.396;16.796;2023-07-13T15:43:42;0;0;0
44045;PMS7003;29709;52.396;16.796;2023-07-13T15:46:55;2;1;1
44045;PMS7003;29709;52.396;16.796;2023-07-13T15:50:12;1;1;1
44045;PMS7003;29709;52.396;16.796;2023-07-13T15:53:32;0;0;0
44045;PMS7003;29709;52.396;16.796;2023-07-13T15:56:48;1;1;1
44045;PMS7003;29709;52.396;16.796;2023-07-13T16:00:13;1;0;0
44045;PMS7003;29709;52.396;16.796;2023-07-13T16:03:32;0;0;0
44045;PMS7003;29709;52.396;16.796;2023-07-13T16:06:45;1;1;0
44045;PMS7003;29709;52.396;16.796;2023-07-13T16:09:59;1;0;0
44045;PMS7003;29709;52.396;16.796;2023-07-13T16:13:16;1;1;1
44045;PMS7003;29709;52.396;16.796;2023-07-13T16:16:33;0;0;0
44045;PMS7003;29709;52.396;16.796;2023-07-13T16:19:47;0;0;0
44045;PMS7003;29709;52.396;16.796;2023-07-13T16:23:00;2;1;0
44045;PMS7003;29709;52.396;16.796;2023-07-13T16:29:39;1;1;0
44045;PMS7003;29709;52.396;16.796;2023-07-13T16:32:53;1;1;1
44045;PMS7003;29709;52.396;16.796;2023-07-13T16:36:10;1;1;1
44045;PMS7003;29709;52.396;16.796;2023-07-13T16:39:28;1;1;1
44045;PMS7003;29709;52.396;16.796;2023-07-13T16:42:42;1;1;1
44045;PMS7003;29709;52.396;16.796;2023-07-13T16:45:55;1;1;0
44045;PMS7003;29709;52.396;16.796;2023-07-13T16:52:37;2;1;1
44045;PMS7003;29709;52.396;16.796;2023-07-13T16:55:50;1;1;0
44045;PMS7003;29709;52.396;16.796;2023-07-13T16:59:11;0;0;0
44045;PMS7003;29709;52.396;16.796;2023-07-13T17:02:32;1;1;1
44045;PMS7003;29709;52.396;16.796;2023-07-13T17:05:47;1;1;1
44045;PMS7003;29709;52.396;16.796;2023-07-13T17:09:04;0;0;0
44045;PMS7003;29709;52.396;16.796;2023-07-13T17:12:21;1;1;1
44045;PMS7003;29709;52.396;16.796;2023-07-13T17:15:36;0;0;0
44045;PMS7003;29709;52.396;16.796;2023-07-13T17:18:50;1;1;1
44045;PMS7003;29709;52.396;16.796;2023-07-13T17:22:04;1;0;0
44045;PMS7003;29709;52.396;16.796;2023-07-13T17:25:22;2;0;0
44045;PMS7003;29709;52.396;16.796;2023-07-13T17:28:37;1;1;1
44045;PMS7003;29709;52.396;16.796;2023-07-13T17:31:51;0;0;0
44045;PMS7003;29709;52.396;16.796;2023-07-13T17:38:34;1;1;1
44045;PMS7003;29709;52.396;16.796;2023-07-13T17:41:52;1;1;1
44045;PMS7003;29709;52.396;16.796;2023-07-13T17:45:07;1;1;1
44045;PMS7003;29709;52.396;16.796;2023-07-13T17:48:23;1;1;1
44045;PMS7003;29709;52.396;16.796;2023-07-13T17:51:37;1;1;1
44045;PMS7003;29709;52.396;16.796;2023-07-13T17:54:53;3;1;1
44045;PMS7003;29709;52.396;16.796;2023-07-13T17:58:06;1;0;0
44045;PMS7003;29709;52.396;16.796;2023-07-13T18:01:21;0;0;0
44045;PMS7003;29709;52.396;16.796;2023-07-13T18:04:35;0;0;0
44045;PMS7003;29709;52.396;16.796;2023-07-13T18:07:51;1;1;1
44045;PMS7003;29709;52.396;16.796;2023-07-13T18:11:07;1;1;1
44045;PMS7003;29709;52.396;16.796;2023-07-13T18:14:22;1;0;0
44045;PMS7003;29709;52.396;16.796;2023-07-13T18:17:35;2;1;1
44045;PMS7003;29709;52.396;16.796;2023-07-13T18:24:09;2;1;1
44045;PMS7003;29709;52.396;16.796;2023-07-13T18:27:26;1;1;0
44045;PMS7003;29709;52.396;16.796;2023-07-13T18:30:39;0;0;0
44045;PMS7003;29709;52.396;16.796;2023-07-13T18:33:53;3;1;1
44045;PMS7003;29709;52.396;16.796;2023-07-13T18:40:31;2;1;1
44045;PMS7003;29709;52.396;16.796;2023-07-13T18:43:47;1;1;1
44045;PMS7003;29709;52.396;16.796;2023-07-13T18:47:04;1;0;0
44045;PMS7003;29709;52.396;16.796;2023-07-13T18:50:24;2;2;1
44045;PMS7003;29709;52.396;16.796;2023-07-13T18:53:43;1;1;1
44045;PMS7003;29709;52.396;16.796;2023-07-13T18:56:56;3;2;2
44045;PMS7003;29709;52.396;16.796;2023-07-13T19:00:10;2;2;1
44045;PMS7003;29709;52.396;16.796;2023-07-13T19:06:46;2;1;1
44045;PMS7003;29709;52.396;16.796;2023-07-13T19:09:59;1;1;1
44045;PMS7003;29709;52.396;16.796;2023-07-13T19:13:22;0;0;0
44045;PMS7003;29709;52.396;16.796;2023-07-13T19:16:37;0;0;0
44045;PMS7003;29709;52.396;16.796;2023-07-13T19:19:52;1;1;0
44045;PMS7003;29709;52.396;16.796;2023-07-13T19:23:10;2;1;1
44045;PMS7003;29709;52.396;16.796;2023-07-13T19:26:31;2;2;2
44045;PMS7003;29709;52.396;16.796;2023-07-13T19:29:46;1;1;1
44045;PMS7003;29709;52.396;16.796;2023-07-13T19:33:00;3;1;0
44045;PMS7003;29709;52.396;16.796;2023-07-13T19:36:17;1;1;1
44045;PMS7003;29709;52.396;16.796;2023-07-13T19:39:35;2;1;1
44045;PMS7003;29709;52.396;16.796;2023-07-13T19:42:54;1;1;1
44045;PMS7003;29709;52.396;16.796;2023-07-13T19:49:31;1;1;1
44045;PMS7003;29709;52.396;16.796;2023-07-13T19:52:48;4;2;2
44045;PMS7003;29709;52.396;16.796;2023-07-13T19:56:04;2;1;1
44045;PMS7003;29709;52.396;16.796;2023-07-13T20:02:42;2;2;2
44045;PMS7003;29709;52.396;16.796;2023-07-13T20:05:56;1;1;1
44045;PMS7003;29709;52.396;16.796;2023-07-13T20:12:36;2;1;1
44045;PMS7003;29709;52.396;16.796;2023-07-13T20:15:50;1;1;1
44045;PMS7003;29709;52.396;16.796;2023-07-13T20:19:04;4;2;1
44045;PMS7003;29709;52.396;16.796;2023-07-13T20:22:20;3;2;2
44045;PMS7003;29709;52.396;16.796;2023-07-13T20:25:33;2;1;1
44045;PMS7003;29709;52.396;16.796;2023-07-13T20:28:46;3;2;1
44045;PMS7003;29709;52.396;16.796;2023-07-13T20:32:00;1;1;1
44045;PMS7003;29709;52.396;16.796;2023-07-13T20:38:38;2;2;1
44045;PMS7003;29709;52.396;16.796;2023-07-13T20:41:51;3;2;2
44045;PMS7003;29709;52.396;16.796;2023-07-13T20:45:05;4;3;3
44045;PMS7003;29709;52.396;16.796;2023-07-13T20:51:44;2;2;2
44045;PMS7003;29709;52.396;16.796;2023-07-13T20:55:22;1;0;0
44045;PMS7003;29709;52.396;16.796;2023-07-13T20:58:26;2;2;1
44045;PMS7003;29709;52.396;16.796;2023-07-13T21:01:39;2;2;1
44045;PMS7003;29709;52.396;16.796;2023-07-13T21:04:55;2;2;2
44045;PMS7003;29709;52.396;16.796;2023-07-13T21:08:16;3;2;1
44045;PMS7003;29709;52.396;16.796;2023-07-13T21:11:30;3;3;2
44045;PMS7003;29709;52.396;16.796;2023-07-13T21:14:45;2;2;2
44045;PMS7003;29709;52.396;16.796;2023-07-13T21:18:00;3;2;2
44045;PMS7003;29709;52.396;16.796;2023-07-13T21:21:15;2;1;1
44045;PMS7003;29709;52.396;16.796;2023-07-13T21:24:30;3;2;2
44045;PMS7003;29709;52.396;16.796;2023-07-13T21:27:44;2;1;0
44045;PMS7003;29709;52.396;16.796;2023-07-13T21:30:58;3;3;2
44045;PMS7003;29709;52.396;16.796;2023-07-13T21:34:15;3;3;3
44045;PMS7003;29709;52.396;16.796;2023-07-13T21:37:31;2;2;2
44045;PMS7003;29709;52.396;16.796;2023-07-13T21:40:46;2;2;1
44045;PMS7003;29709;52.396;16.796;2023-07-13T21:44:01;2;2;1
44045;PMS7003;29709;52.396;16.796;2023-07-13T21:47:25;2;2;2
44045;PMS7003;29709;52.396;16.796;2023-07-13T21:50:42;3;2;2
44045;PMS7003;29709;52.396;16.796;2023-07-13T21:53:57;1;1;1
44045;PMS7003;29709;52.396;16.796;2023-07-13T21:57:19;2;2;2
44045;PMS7003;29709;52.396;16.796;2023-07-13T22:00:30;2;2;1
44045;PMS7003;29709;52.396;16.796;2023-07-13T22:03:46;2;2;2
44045;PMS7003;29709;52.396;16.796;2023-07-13T22:07:03;1;1;1
44045;PMS7003;29709;52.396;16.796;2023-07-13T22:10:18;3;3;2
44045;PMS7003;29709;52.396;16.796;2023-07-13T22:13:33;3;2;2
44045;PMS7003;29709;52.396;16.796;2023-07-13T22:16:46;2;2;2
44045;PMS7003;29709;52.396;16.796;2023-07-13T22:19:59;4;3;2
44045;PMS7003;29709;52.396;16.796;2023-07-13T22:26:33;3;2;2
44045;PMS7003;29709;52.396;16.796;2023-07-13T22:29:49;2;1;1
44045;PMS7003;29709;52.396;16.796;2023-07-13T22:33:04;2;2;2
44045;PMS7003;29709;52.396;16.796;2023-07-13T22:36:27;2;2;1
44045;PMS7003;29709;52.396;16.796;2023-07-13T22:39:40;2;1;1
44045;PMS7003;29709;52.396;16.796;2023-07-13T22:42:53;2;2;2
44045;PMS7003;29709;52.396;16.796;2023-07-13T22:49:31;2;2;1
44045;PMS7003;29709;52.396;16.796;2023-07-13T22:52:46;2;1;1
44045;PMS7003;29709;52.396;16.796;2023-07-13T22:55:59;2;2;2
44045;PMS7003;29709;52.396;16.796;2023-07-13T22:59:13;4;1;1